Current | Forecast
Updated: 12:20 AM EET on December 14, 2017
Observed at Vilnius, Belarus
Temperature 27°F
Windchill 18°F
Humidity 93%
Dew Point 25°F
Wind SSE at 9 mph
Pressure 29.77 in (Falling)
Conditions Clear
Visibility -
UV N/A
Clouds
Yesterday's Maximum 39°F
Yesterday's Minimum 27°F approx.
Yesterday's Heating Degree Days 32 approx.
Sunrise9:32 AM +03
Sunset4:56 PM +03
Moon Rise5:00 AM +03
Moon Set3:29 PM +03
Moon PhaseMoon Phase
Waning Crescent
Raw METARMETAR EYVI 132220Z 16008KT CAVOK M03/M04 Q1008 R19/1///95 NOSIG


Monday
. High: 53° F.
Tuesday
. High: 57° F.
Wednesday
. High: 68° F.
Thursday
. High: 71° F.
Friday
. High: 66° F.
Saturday
. High: 57° F.
Sunday
. High: 59° F.
Monday
. High: 53° F.

Units: English | Metric

Find the Weather for any City, State or Zipcode, or Country:

U.S. State List | Severe Weather | Tropical Storms | Ski Conditions
United States | Canada | Central America | South America | Asia | Europe | Australia | Africa | Islands

Weather Underground

© Copyright 2017
The Weather Company, LLC